Sharpsburg, North Carolina
Current Conditions -  °F | °C
As of 10:53 AM on Tuesday 21 Oct 2014 (Local Time) from KRWI Reporting Station
Clear Clear  
Wind Chill: 67°   Ceiling: Unl
Heat Index: 67°   Visibility: 10mi
Dew Point: 54°   Wind: 5mph
Humidity: 63%   Direction: 290°WNW
Pressure: 29.92"   Gusts: NA
Location:  35.87°N, 77.83°W
Report Text: KRWI 211453Z AUTO 29004KT 10SM CLR 19/12 A2992 RMK AO2 SLP131 T01940122 58002
Loading
Personal Weather Stations






























Interactive Weather Map
Tropical Storm Tracking
New forecast layout! Learn more

10-Day Weather Forecast

Advertisements
Track Severe Weather on mobile